Time;durP1;ratioP1;P1;durP2;ratioP2;P2;SDS_P1;SDS_P2;PMS_P1;PMS_P2;Temp;Humidity;BMP_temperature;BMP_pressure;BME280_temperature;BME280_humidity;BME280_pressure;Samples;Min_cycle;Max_cycle;Signal;HPM_P1;HPM_P2
2023/03/24 00:00:19;;;;;;;41.25;27.13;;;9.80;99.90;;;;;;6194760;23;20486;-91
2023/03/24 00:02:48;;;;;;;40.75;26.80;;;9.80;99.90;;;;;;6221100;23;20004;-92
2023/03/24 00:05:20;;;;;;;36.95;25.83;;;9.70;99.90;;;;;;6195008;23;20008;-90
2023/03/24 00:07:47;;;;;;;38.33;26.02;;;9.60;99.90;;;;;;6220079;23;20019;-90
2023/03/24 00:10:17;;;;;;;46.60;28.63;;;9.60;99.90;;;;;;6194864;23;20042;-91
2023/03/24 00:12:47;;;;;;;44.58;28.08;;;9.60;99.90;;;;;;6219814;23;20004;-90
2023/03/24 00:15:17;;;;;;;40.92;28.42;;;9.60;99.90;;;;;;6194762;23;20138;-91
2023/03/24 00:17:49;;;;;;;49.58;29.90;;;9.70;99.90;;;;;;6194665;23;20123;-91
2023/03/24 00:20:18;;;;;;;51.05;29.88;;;9.70;99.90;;;;;;6208275;22;20322;-91
2023/03/24 00:22:49;;;;;;;54.88;30.45;;;9.70;99.90;;;;;;6225460;22;20003;-90
2023/03/24 00:25:23;;;;;;;46.15;29.75;;;9.70;99.90;;;;;;6225981;22;20003;-91
2023/03/24 00:27:50;;;;;;;48.93;30.40;;;9.70;99.90;;;;;;6225950;22;20016;-91
2023/03/24 00:30:18;;;;;;;44.25;28.38;;;9.70;99.90;;;;;;6225692;22;20003;-92
2023/03/24 00:32:45;;;;;;;46.15;29.13;;;9.70;99.90;;;;;;6225521;22;20007;-92
2023/03/24 00:35:15;;;;;;;46.05;30.30;;;9.70;99.90;;;;;;6226796;22;20008;-91
2023/03/24 00:37:43;;;;;;;49.47;30.95;;;9.70;99.90;;;;;;6226246;22;20016;-91
2023/03/24 00:40:13;;;;;;;51.72;32.78;;;9.60;99.90;;;;;;6230355;22;20004;-92
2023/03/24 00:42:44;;;;;;;55.25;34.63;;;9.70;99.90;;;;;;6249456;22;20004;-90
2023/03/24 00:45:14;;;;;;;55.13;34.88;;;9.70;99.90;;;;;;6237727;22;20326;-90
2023/03/24 00:47:43;;;;;;;53.78;33.80;;;9.80;99.90;;;;;;6225815;22;20011;-91
2023/03/24 00:50:16;;;;;;;55.08;35.05;;;9.90;99.90;;;;;;6225364;22;20007;-91
2023/03/24 00:52:46;;;;;;;56.78;34.88;;;9.80;99.90;;;;;;6226190;22;20007;-90
2023/03/24 00:55:16;;;;;;;57.38;34.50;;;9.90;99.90;;;;;;6226083;22;20429;-90
2023/03/24 00:57:49;;;;;;;56.20;33.63;;;9.90;99.90;;;;;;6225536;22;20098;-91
2023/03/24 01:00:25;;;;;;;52.42;33.60;;;9.80;99.90;;;;;;6247144;22;20016;-90
2023/03/24 01:02:56;;;;;;;55.88;33.35;;;9.80;99.90;;;;;;6251915;22;20338;-90
2023/03/24 01:05:29;;;;;;;56.15;34.55;;;9.80;99.90;;;;;;6251569;22;20442;-91
2023/03/24 01:07:57;;;;;;;57.10;34.83;;;9.80;99.90;;;;;;6251353;22;20015;-90
2023/03/24 01:10:29;;;;;;;52.47;33.90;;;9.80;99.90;;;;;;6252469;22;20003;-91
2023/03/24 01:12:58;;;;;;;56.22;32.42;;;9.90;99.90;;;;;;6251318;22;20035;-90
2023/03/24 01:15:29;;;;;;;54.78;33.45;;;9.90;99.90;;;;;;6256173;22;19987;-91
2023/03/24 01:17:56;;;;;;;59.33;34.25;;;9.90;99.90;;;;;;6279297;22;20004;-93
2023/03/24 01:20:24;;;;;;;55.33;33.63;;;9.90;99.90;;;;;;6279579;22;19992;-90
2023/03/24 01:22:51;;;;;;;51.00;32.15;;;9.80;99.90;;;;;;6279265;22;20789;-92
2023/03/24 01:25:21;;;;;;;56.00;32.30;;;9.80;99.90;;;;;;6257202;22;20061;-91
2023/03/24 01:27:50;;;;;;;47.78;30.60;;;9.80;99.90;;;;;;6251551;22;20004;-91
2023/03/24 01:30:38;;;;;;;57.83;32.45;;;9.70;99.90;;;;;;6251167;22;20008;-92
2023/03/24 01:33:08;;;;;;;50.22;31.00;;;9.70;99.90;;;;;;6250650;22;20014;-90
2023/03/24 01:35:36;;;;;;;48.08;29.63;;;9.70;99.90;;;;;;6252065;22;20014;-89
2023/03/24 01:38:09;;;;;;;43.70;29.17;;;9.70;99.90;;;;;;6252345;22;20019;-91
2023/03/24 01:40:38;;;;;;;45.03;27.55;;;9.70;99.90;;;;;;6252771;22;20007;-92
2023/03/24 01:43:15;;;;;;;41.45;26.60;;;9.70;99.90;;;;;;6252217;22;20011;-91
2023/03/24 01:45:55;;;;;;;40.28;26.48;;;9.70;99.90;;;;;;6252496;22;20007;-90
2023/03/24 01:48:32;;;;;;;37.05;24.65;;;9.70;99.90;;;;;;6252331;22;20018;-91
2023/03/24 01:51:10;;;;;;;39.65;25.70;;;9.70;99.90;;;;;;6252262;22;20004;-91
2023/03/24 01:53:42;;;;;;;37.60;25.17;;;9.70;99.90;;;;;;6252232;22;20500;-91
2023/03/24 01:56:10;;;;;;;33.05;23.25;;;9.70;99.90;;;;;;6252309;22;20035;-91
2023/03/24 01:58:46;;;;;;;33.67;22.85;;;9.60;99.90;;;;;;6252674;22;20091;-90
2023/03/24 02:01:32;;;;;;;41.53;25.05;;;9.50;99.90;;;;;;6256894;22;20015;-90
2023/03/24 02:04:24;;;;;;;40.83;25.77;;;9.50;99.90;;;;;;6232306;22;20436;-91
2023/03/24 02:06:54;;;;;;;38.15;24.23;;;9.40;99.90;;;;;;6227779;22;20031;-90
2023/03/24 02:09:20;;;;;;;40.15;24.40;;;9.30;99.90;;;;;;6226832;22;20008;-91
2023/03/24 02:11:47;;;;;;;35.45;23.55;;;9.30;99.90;;;;;;6226931;22;20018;-91
2023/03/24 02:14:13;;;;;;;40.33;25.00;;;9.20;99.90;;;;;;6226599;22;20004;-93
2023/03/24 02:17:15;;;;;;;39.08;25.33;;;9.10;99.90;;;;;;6227195;22;20012;-92
2023/03/24 02:19:59;;;;;;;40.38;24.52;;;9.10;99.90;;;;;;6226825;22;20026;-91
2023/03/24 02:22:48;;;;;;;34.72;23.08;;;9.00;99.90;;;;;;6226533;22;20020;-90
2023/03/24 02:25:42;;;;;;;33.63;22.05;;;9.00;99.90;;;;;;6226935;22;20014;-90
2023/03/24 02:28:39;;;;;;;34.33;22.52;;;8.90;99.90;;;;;;6226689;22;20011;-91
2023/03/24 02:31:33;;;;;;;35.05;22.63;;;8.90;99.90;;;;;;6226800;22;20440;-92
2023/03/24 02:34:24;;;;;;;36.42;23.25;;;8.80;99.90;;;;;;6226602;22;20008;-90
2023/03/24 02:37:26;;;;;;;31.98;21.45;;;8.70;99.90;;;;;;6227299;22;20035;-90
2023/03/24 02:40:23;;;;;;;34.50;21.08;;;8.60;99.90;;;;;;6252878;22;20020;-90
2023/03/24 02:43:08;;;;;;;31.45;20.88;;;8.60;99.90;;;;;;6207423;22;20012;-91
2023/03/24 02:45:51;;;;;;;29.83;21.42;;;8.50;99.90;;;;;;6226478;22;20007;-91
2023/03/24 02:48:21;;;;;;;32.58;20.92;;;8.50;99.90;;;;;;6226373;22;20060;-90
2023/03/24 02:50:50;;;;;;;34.47;21.02;;;8.30;99.90;;;;;;6226385;22;20015;-92
2023/03/24 02:53:28;;;;;;;37.55;23.40;;;8.30;99.90;;;;;;6226411;22;20038;-91
2023/03/24 02:56:37;;;;;;;32.08;22.35;;;8.30;99.90;;;;;;6243402;22;20007;-90
2023/03/24 02:59:40;;;;;;;37.45;23.17;;;8.30;99.90;;;;;;6236802;22;20020;-90
2023/03/24 03:02:32;;;;;;;33.40;22.42;;;8.30;99.90;;;;;;6277175;22;20007;-90
2023/03/24 03:05:06;;;;;;;;;;;8.30;99.90;;;;;;6252610;22;20081;-90
2023/03/24 03:07:36;;;;;;;32.75;21.52;;;8.30;99.90;;;;;;6277111;22;19985;-90
2023/03/24 03:10:07;;;;;;;29.38;20.33;;;8.40;99.90;;;;;;6251751;22;20029;-91
2023/03/24 03:12:36;;;;;;;33.22;22.00;;;8.40;99.90;;;;;;6251644;22;20011;-90
2023/03/24 03:15:12;;;;;;;31.98;20.55;;;8.30;99.90;;;;;;6251626;22;20071;-90
2023/03/24 03:17:46;;;;;;;34.42;20.50;;;8.30;99.90;;;;;;6251467;22;20146;-91
2023/03/24 03:20:18;;;;;;;28.90;19.55;;;8.20;99.90;;;;;;6251233;22;20011;-90
2023/03/24 03:22:52;;;;;;;30.67;20.48;;;8.10;99.90;;;;;;6251500;22;20077;-90
2023/03/24 03:25:27;;;;;;;31.75;21.42;;;8.10;99.90;;;;;;6251690;22;20015;-90
2023/03/24 03:27:59;;;;;;;31.90;19.90;;;8.00;99.90;;;;;;6251501;22;20011;-91
2023/03/24 03:30:36;;;;;;;31.58;20.38;;;8.00;99.90;;;;;;6251376;22;20008;-91
2023/03/24 03:33:16;;;;;;;30.40;20.45;;;8.10;99.90;;;;;;6251260;22;20007;-90
2023/03/24 03:36:02;;;;;;;30.45;20.08;;;8.10;99.90;;;;;;6252143;22;20034;-90
2023/03/24 03:39:00;;;;;;;30.38;19.55;;;8.10;99.90;;;;;;6251103;22;20016;-90
2023/03/24 03:41:26;;;;;;;28.67;19.50;;;8.10;99.90;;;;;;6251007;22;20042;-91
2023/03/24 03:43:53;;;;;;;27.48;19.10;;;8.10;99.90;;;;;;6251327;22;20003;-90
2023/03/24 03:46:20;;;;;;;30.15;19.45;;;8.00;99.90;;;;;;6251157;22;20008;-91
2023/03/24 03:48:48;;;;;;;27.60;20.10;;;7.90;99.90;;;;;;6251664;22;20094;-91
2023/03/24 03:51:17;;;;;;;27.50;18.75;;;7.90;99.90;;;;;;6251153;22;20456;-90
2023/03/24 03:53:58;;;;;;;26.67;18.98;;;7.80;99.90;;;;;;6252604;22;20015;-89
2023/03/24 03:56:32;;;;;;;29.58;18.85;;;7.70;99.90;;;;;;6251540;22;20002;-91
2023/03/24 03:59:32;;;;;;;28.50;18.83;;;7.70;99.90;;;;;;6275571;22;20061;-91
2023/03/24 04:02:07;;;;;;;26.17;18.80;;;7.70;99.90;;;;;;6251593;22;20082;-92
2023/03/24 04:04:57;;;;;;;26.45;18.77;;;7.60;99.90;;;;;;6251914;22;20050;-91
2023/03/24 04:07:56;;;;;;;26.77;18.73;;;7.60;99.90;;;;;;6252864;22;20386;-90
2023/03/24 04:11:07;;;;;;;27.98;18.35;;;7.50;99.90;;;;;;6276747;22;20069;-90
2023/03/24 04:14:01;;;;;;;26.33;18.58;;;7.40;99.90;;;;;;6252886;22;20008;-91
2023/03/24 04:16:44;;;;;;;25.63;18.52;;;7.40;99.90;;;;;;6253459;22;20004;-90
2023/03/24 04:19:39;;;;;;;24.33;17.58;;;7.40;99.90;;;;;;6251923;22;20027;-91
2023/03/24 04:22:29;;;;;;;25.52;17.95;;;7.40;99.90;;;;;;6276560;22;20043;-90
2023/03/24 04:25:29;;;;;;;24.52;17.63;;;7.40;99.90;;;;;;6254383;22;20013;-90
2023/03/24 04:28:17;;;;;;;27.70;18.15;;;7.30;99.90;;;;;;6250942;22;20015;-91
2023/03/24 04:30:50;;;;;;;25.10;17.10;;;7.30;99.90;;;;;;6251032;22;20008;-90
2023/03/24 04:33:27;;;;;;;26.00;17.58;;;7.30;99.90;;;;;;6251595;22;20011;-90
2023/03/24 04:36:05;;;;;;;24.77;17.48;;;7.30;99.90;;;;;;6251174;22;20004;-90
2023/03/24 04:38:56;;;;;;;24.80;17.30;;;7.30;99.90;;;;;;6253738;22;20430;-90
2023/03/24 04:41:36;;;;;;;25.58;16.92;;;7.30;99.90;;;;;;6253652;22;20069;-91
2023/03/24 04:44:16;;;;;;;24.77;17.67;;;7.30;99.90;;;;;;6259331;22;20015;-90
2023/03/24 04:47:03;;;;;;;22.75;17.15;;;7.30;99.90;;;;;;6278939;22;20008;-91
2023/03/24 04:49:38;;;;;;;26.55;17.30;;;7.30;99.90;;;;;;6251168;22;20054;-91
2023/03/24 04:52:05;;;;;;;;;;;7.20;99.90;;;;;;6251446;22;20386;-90
2023/03/24 04:54:34;;;;;;;25.45;16.60;;;7.30;99.90;;;;;;6276858;22;19906;-90
2023/03/24 04:57:06;;;;;;;27.80;16.73;;;7.30;99.90;;;;;;6251947;22;20051;-90
2023/03/24 04:59:39;;;;;;;21.38;15.80;;;7.30;99.90;;;;;;6251658;22;20094;-90
2023/03/24 05:02:07;;;;;;;23.30;16.08;;;7.30;99.90;;;;;;6225686;22;20060;-91
2023/03/24 05:05:13;;;;;;;24.45;16.00;;;7.40;99.90;;;;;;6167624;23;20009;-90
2023/03/24 05:07:48;;;;;;;25.33;16.58;;;7.50;99.90;;;;;;6160724;23;20005;-91
2023/03/24 05:10:15;;;;;;;23.52;15.65;;;7.50;99.90;;;;;;6161783;23;20013;-90
2023/03/24 05:12:53;;;;;;;22.60;14.63;;;7.50;99.90;;;;;;6164388;23;20005;-90
2023/03/24 05:15:19;;;;;;;21.83;15.23;;;7.60;99.90;;;;;;6162040;23;20065;-91
2023/03/24 05:17:50;;;;;;;20.80;15.02;;;7.60;99.90;;;;;;6138624;23;20013;-90
2023/03/24 05:20:17;;;;;;;21.88;14.93;;;7.70;99.90;;;;;;6137383;23;20035;-89
2023/03/24 05:22:48;;;;;;;19.60;15.20;;;7.80;99.90;;;;;;6171096;23;20009;-92
2023/03/24 05:25:15;;;;;;;18.85;13.73;;;7.80;99.90;;;;;;6183687;23;19989;-90
2023/03/24 05:27:42;;;;;;;20.15;14.43;;;8.00;99.90;;;;;;6179279;23;20483;-91
2023/03/24 05:30:20;;;;;;;18.27;13.30;;;8.30;99.90;;;;;;6164578;23;20522;-91
2023/03/24 05:32:50;;;;;;;21.27;13.38;;;8.60;99.90;;;;;;6162736;23;20013;-91
2023/03/24 05:35:17;;;;;;;16.75;13.07;;;9.00;99.90;;;;;;6184552;22;20359;-91
2023/03/24 05:37:47;;;;;;;21.00;13.27;;;9.80;99.90;;;;;;6234601;22;20016;-91
2023/03/24 05:40:14;;;;;;;17.15;13.77;;;10.30;99.90;;;;;;6233769;22;20000;-92
2023/03/24 05:42:54;;;;;;;;;;;10.60;99.90;;;;;;6229018;22;20014;-90
2023/03/24 05:45:24;;;;;;;17.60;15.95;;;11.20;99.90;;;;;;6253198;22;19985;-92
2023/03/24 05:47:53;;;;;;;17.98;16.30;;;12.00;99.90;;;;;;6228207;22;20117;-91
2023/03/24 05:50:31;;;;;;;19.98;17.92;;;12.90;99.90;;;;;;6230500;22;20020;-92
2023/03/24 05:52:57;;;;;;;21.73;19.67;;;13.90;99.90;;;;;;6227912;22;20004;-91
2023/03/24 05:55:52;;;;;;;25.15;20.45;;;15.30;99.90;;;;;;6232980;22;20050;-92
2023/03/24 05:58:51;;;;;;;23.92;21.42;;;15.90;99.90;;;;;;6267125;22;20098;-91
2023/03/24 06:01:17;;;;;;;25.02;22.75;;;16.50;99.90;;;;;;6259181;22;20328;-91
2023/03/24 06:03:47;;;;;;;24.73;22.92;;;16.90;99.90;;;;;;6257909;22;20340;-91
2023/03/24 06:06:15;;;;;;;25.88;23.77;;;17.30;99.90;;;;;;6257823;22;20010;-91
2023/03/24 06:08:57;;;;;;;26.40;24.45;;;17.80;99.90;;;;;;6257792;22;20007;-91
2023/03/24 06:11:26;;;;;;;26.95;24.65;;;18.20;99.90;;;;;;6257842;22;20031;-92
2023/03/24 06:14:01;;;;;;;24.70;23.00;;;18.20;99.90;;;;;;6286100;22;20018;-91
2023/03/24 06:16:43;;;;;;;25.10;23.20;;;19.00;99.90;;;;;;6259283;22;20007;-93
2023/03/24 06:19:21;;;;;;;24.77;22.98;;;21.00;99.90;;;;;;6258673;22;20019;-92
2023/03/24 06:22:11;;;;;;;25.50;23.25;;;20.30;99.90;;;;;;6275709;22;20011;-92
2023/03/24 06:24:39;;;;;;;25.60;23.80;;;20.30;99.90;;;;;;6257875;22;20007;-91
2023/03/24 06:27:10;;;;;;;26.50;24.48;;;20.90;99.90;;;;;;6258072;22;20073;-92
2023/03/24 06:29:37;;;;;;;27.15;24.90;;;21.40;99.90;;;;;;6282844;22;20345;-92
2023/03/24 06:32:08;;;;;;;26.67;24.60;;;21.80;99.90;;;;;;6257113;22;20003;-94
2023/03/24 06:34:40;;;;;;;26.88;24.80;;;22.20;99.90;;;;;;6258681;22;20090;-91
2023/03/24 06:37:26;;;;;;;26.55;24.55;;;21.80;99.90;;;;;;6261001;22;20011;-91
2023/03/24 06:39:54;;;;;;;25.65;23.75;;;21.10;99.90;;;;;;6257560;22;20028;-91
2023/03/24 06:42:26;;;;;;;25.17;23.35;;;20.60;99.90;;;;;;6257674;22;20003;-90
2023/03/24 06:44:53;;;;;;;25.95;24.05;;;20.30;99.90;;;;;;6257004;22;20011;-92
2023/03/24 16:04:22;;;;;;;23.77;21.88;;;19.70;99.90;;;;;;6330769;22;20045;-93
2023/03/24 16:07:38;;;;;;;;;;;;;;;;;;;;;
2023/03/24 16:11:06;;;;;;;26.90;24.50;;;19.20;99.90;;;;;;6090720;23;20017;-93
2023/03/24 16:30:20;;;;;;;33.97;29.63;;;18.40;99.90;;;;;;6265942;22;20030;-92
2023/03/24 16:32:52;;;;;;;30.70;27.58;;;18.30;99.90;;;;;;6266827;22;20015;-92
2023/03/24 16:35:18;;;;;;;32.08;28.75;;;18.20;99.90;;;;;;6259695;22;20141;-93
2023/03/24 16:37:46;;;;;;;31.27;27.98;;;18.20;99.90;;;;;;6251838;22;20018;-88
2023/03/24 16:40:24;;;;;;;33.30;29.40;;;18.10;99.90;;;;;;6278685;22;20018;-90
2023/03/24 16:42:51;;;;;;;36.17;30.65;;;18.10;99.90;;;;;;6279039;22;20074;-92
2023/03/24 16:45:17;;;;;;;36.13;30.90;;;18.00;99.90;;;;;;6254922;22;20018;-90
2023/03/24 16:47:45;;;;;;;35.40;31.15;;;17.90;99.90;;;;;;6276640;22;20078;-91
2023/03/24 16:50:40;;;;;;;36.40;32.00;;;17.80;99.90;;;;;;6255559;22;20004;-95
2023/03/24 16:53:10;;;;;;;50.63;36.00;;;17.60;99.90;;;;;;6240446;22;20097;-94
2023/03/24 16:55:38;;;;;;;47.25;36.30;;;17.50;99.90;;;;;;6252745;22;20440;-94
2023/03/24 16:58:05;;;;;;;51.70;35.58;;;17.40;99.90;;;;;;6276572;22;20069;-91
2023/03/24 17:00:35;;;;;;;41.83;33.88;;;17.30;99.90;;;;;;6253459;22;20070;-94
2023/03/24 17:03:04;;;;;;;39.88;31.73;;;17.30;99.90;;;;;;6281445;22;20004;-92
2023/03/24 17:05:52;;;;;;;41.53;32.03;;;17.20;99.90;;;;;;6257102;22;20091;-94
2023/03/24 17:08:27;;;;;;;47.35;34.25;;;17.10;99.90;;;;;;6233893;22;20007;-91
2023/03/24 17:10:54;;;;;;;48.60;34.15;;;17.00;99.90;;;;;;6257639;22;20004;-92
2023/03/24 17:14:07;;;;;;;67.25;42.25;;;16.80;99.90;;;;;;6272803;22;20038;-96
2023/03/24 17:16:44;;;;;;;76.80;46.63;;;16.60;99.90;;;;;;6235013;22;20045;-93
2023/03/24 17:19:18;;;;;;;167.68;85.32;;;16.50;99.90;;;;;;6301881;22;20023;-94
2023/03/24 17:22:04;;;;;;;95.38;56.33;;;16.50;99.90;;;;;;6272744;22;20498;-93
2023/03/24 17:24:35;;;;;;;54.65;37.10;;;16.50;99.90;;;;;;6264837;22;20062;-93
2023/03/24 17:27:02;;;;;;;46.40;35.17;;;16.50;99.90;;;;;;6264789;22;20003;-94
2023/03/24 17:29:28;;;;;;;36.72;31.48;;;16.50;99.90;;;;;;6269941;22;20000;-92
2023/03/24 17:31:54;;;;;;;39.95;29.67;;;16.50;99.90;;;;;;6267320;22;20018;-93
2023/03/24 17:34:21;;;;;;;30.88;27.98;;;16.40;99.90;;;;;;6259355;22;20007;-93
2023/03/24 17:36:49;;;;;;;30.20;27.08;;;16.30;99.90;;;;;;6263840;22;20015;-95
2023/03/24 17:39:17;;;;;;;29.52;26.67;;;16.30;99.90;;;;;;6249950;22;20018;-91
2023/03/24 17:41:43;;;;;;;29.42;26.73;;;16.20;99.90;;;;;;6287094;22;20003;-93
2023/03/24 17:44:10;;;;;;;27.98;25.27;;;16.10;99.90;;;;;;6265870;22;20030;-92
2023/03/24 17:46:37;;;;;;;29.25;26.33;;;16.00;99.90;;;;;;6265132;22;20011;-92
2023/03/24 17:49:05;;;;;;;27.90;25.42;;;15.90;99.90;;;;;;6272745;22;20007;-91
2023/03/24 17:51:34;;;;;;;30.63;25.80;;;15.80;99.90;;;;;;6236236;22;20004;-93
2023/03/24 17:54:03;;;;;;;27.48;24.80;;;15.80;99.90;;;;;;6273724;22;20077;-93
2023/03/24 17:56:35;;;;;;;29.70;26.83;;;15.70;99.90;;;;;;6261856;22;20003;-92
2023/03/24 17:59:02;;;;;;;29.20;26.35;;;15.60;99.90;;;;;;6259552;22;20045;-92
2023/03/24 18:01:29;;;;;;;29.38;26.30;;;15.60;99.90;;;;;;6261637;22;20000;-93
2023/03/24 18:03:56;;;;;;;28.15;25.55;;;15.50;99.90;;;;;;6262070;22;20008;-93
2023/03/24 18:06:32;;;;;;;28.30;25.40;;;15.50;99.90;;;;;;6269410;22;19999;-94
2023/03/24 18:09:02;;;;;;;27.98;25.23;;;15.40;99.90;;;;;;6263991;22;20007;-93
2023/03/24 18:11:28;;;;;;;27.40;24.50;;;15.40;99.90;;;;;;6268674;22;20071;-92
2023/03/24 18:13:54;;;;;;;26.38;23.88;;;15.40;99.90;;;;;;6263926;22;20007;-93
2023/03/24 18:16:21;;;;;;;27.52;24.70;;;15.30;99.90;;;;;;6261849;22;20068;-94
2023/03/24 18:18:55;;;;;;;27.08;24.42;;;15.30;99.90;;;;;;6284227;22;20015;-94
2023/03/24 18:21:23;;;;;;;29.08;26.10;;;15.20;99.90;;;;;;6236208;22;20110;-93
2023/03/24 18:23:58;;;;;;;29.15;26.15;;;15.20;99.90;;;;;;6284641;22;20004;-93
2023/03/24 18:26:37;;;;;;;30.15;26.67;;;15.10;99.90;;;;;;6265500;22;20470;-92
2023/03/24 18:29:07;;;;;;;28.50;25.17;;;15.00;99.90;;;;;;6282729;22;20007;-93
2023/03/24 18:31:33;;;;;;;31.48;26.80;;;14.90;99.90;;;;;;6252454;22;20011;-92
2023/03/24 18:34:00;;;;;;;28.63;24.95;;;14.90;99.90;;;;;;6252312;22;20007;-94
2023/03/24 18:36:27;;;;;;;28.08;24.20;;;14.80;99.90;;;;;;6252007;22;20530;-94
2023/03/24 18:39:05;;;;;;;29.55;24.42;;;14.70;99.90;;;;;;6259684;22;20437;-94
2023/03/24 18:41:35;;;;;;;29.90;25.17;;;14.50;99.90;;;;;;6260195;22;20014;-93
2023/03/24 18:44:06;;;;;;;37.13;26.65;;;14.30;99.90;;;;;;6292757;22;20091;-96
2023/03/24 18:49:21;;;;;;;37.67;27.05;;;14.00;99.90;;;;;;6280394;22;20023;-91
2023/03/24 18:52:13;;;;;;;35.58;26.15;;;13.90;99.90;;;;;;6265917;22;20014;-93
2023/03/24 18:58:01;;;;;;;38.20;26.52;;;13.80;99.90;;;;;;6272656;22;20030;-89
2023/03/24 19:00:30;;;;;;;38.63;27.13;;;13.70;99.90;;;;;;6256802;22;20421;-92
2023/03/24 19:02:57;;;;;;;29.90;24.42;;;13.70;99.90;;;;;;6257970;22;20003;-91
2023/03/24 19:05:24;;;;;;;27.75;23.88;;;13.70;99.90;;;;;;6257349;22;20003;-88
2023/03/24 19:11:54;;;;;;;31.97;26.47;;;13.80;99.90;;;;;;6292360;22;20026;-95
2023/03/24 19:14:23;;;;;;;28.08;25.15;;;13.80;99.90;;;;;;6260858;22;20003;-90
2023/03/24 19:16:50;;;;;;;31.90;24.98;;;13.90;99.90;;;;;;6260067;22;20069;-90
2023/03/24 19:19:17;;;;;;;30.63;25.23;;;13.90;99.90;;;;;;6266419;22;20019;-92
2023/03/24 19:21:43;;;;;;;30.38;25.67;;;13.90;99.90;;;;;;6265213;22;20082;-93
2023/03/24 19:24:10;;;;;;;33.95;25.52;;;13.90;99.90;;;;;;6252913;22;20011;-92
2023/03/24 19:26:36;;;;;;;31.40;25.00;;;13.90;99.90;;;;;;6265243;22;20077;-92
2023/03/24 19:29:05;;;;;;;33.92;25.67;;;13.80;99.90;;;;;;6270538;22;20007;-92
2023/03/24 19:31:33;;;;;;;32.00;25.67;;;13.70;99.90;;;;;;6269713;22;20059;-92
2023/03/24 19:34:00;;;;;;;29.83;24.52;;;13.60;99.90;;;;;;6258637;22;20022;-93
2023/03/24 19:36:26;;;;;;;32.83;25.63;;;13.60;99.90;;;;;;6257329;22;20003;-93
2023/03/24 19:38:53;;;;;;;28.17;24.40;;;13.40;99.90;;;;;;6256364;22;20015;-92
2023/03/24 19:41:20;;;;;;;29.42;24.88;;;13.30;99.90;;;;;;6257309;22;20074;-93
2023/03/24 19:43:46;;;;;;;30.15;24.80;;;13.20;99.90;;;;;;6258876;22;20007;-92
2023/03/24 19:46:39;;;;;;;33.03;25.17;;;13.10;99.90;;;;;;6260370;22;20080;-94
2023/03/24 19:49:30;;;;;;;34.13;25.33;;;13.00;99.90;;;;;;6279187;22;20375;-91
2023/03/24 19:51:58;;;;;;;34.28;25.67;;;12.90;99.90;;;;;;6266436;23;19996;-93
2023/03/24 19:54:47;;;;;;;32.05;26.33;;;12.80;99.90;;;;;;6241399;23;20015;-92
2023/03/24 20:00:06;;;;;;;33.97;24.90;;;12.60;99.90;;;;;;6327057;22;20019;-92
2023/03/24 20:02:37;;;;;;;31.58;24.05;;;12.50;99.90;;;;;;6268650;22;20019;-94
2023/03/24 20:05:25;;;;;;;29.60;24.60;;;12.40;99.90;;;;;;6292483;22;20007;-93
2023/03/24 20:07:56;;;;;;;46.38;32.58;;;12.30;99.90;;;;;;6269646;22;20000;-94
2023/03/24 20:10:43;;;;;;;45.92;30.83;;;12.40;99.90;;;;;;6270954;22;20010;-91
2023/03/24 20:13:15;;;;;;;37.03;27.73;;;12.40;99.90;;;;;;6266459;22;20003;-93
2023/03/24 20:15:51;;;;;;;40.40;27.98;;;12.30;99.90;;;;;;6286482;22;20019;-93
2023/03/24 20:18:35;;;;;;;38.53;27.30;;;12.30;99.90;;;;;;6216498;22;20436;-94
2023/03/24 20:21:12;;;;;;;45.88;29.60;;;12.20;99.90;;;;;;6245682;22;20007;-93
2023/03/24 20:24:05;;;;;;;43.97;28.15;;;12.10;99.90;;;;;;6263339;22;20003;-94
2023/03/24 20:26:32;;;;;;;44.95;30.63;;;12.10;99.90;;;;;;6239339;22;20027;-95
2023/03/24 20:28:58;;;;;;;48.80;30.77;;;12.00;99.90;;;;;;6239346;22;19999;-91
2023/03/24 20:31:25;;;;;;;55.60;30.92;;;11.90;99.90;;;;;;6230192;22;20016;-94
2023/03/24 20:33:52;;;;;;;55.50;31.45;;;11.90;99.90;;;;;;6228728;22;20007;-95
2023/03/24 20:36:18;;;;;;;60.15;31.58;;;11.90;99.90;;;;;;6228240;22;20015;-92
2023/03/24 20:38:45;;;;;;;52.22;30.95;;;11.80;99.90;;;;;;6228222;22;20015;-93
2023/03/24 20:41:12;;;;;;;56.17;32.38;;;11.70;99.90;;;;;;6230455;22;20004;-94
2023/03/24 20:43:41;;;;;;;64.38;32.95;;;11.70;99.90;;;;;;6233220;22;20004;-94
2023/03/24 20:46:15;;;;;;;64.63;35.35;;;11.70;99.90;;;;;;6229572;22;20011;-95
2023/03/24 20:48:42;;;;;;;60.67;33.65;;;11.60;99.90;;;;;;6233883;22;20031;-95
2023/03/24 20:51:12;;;;;;;58.45;34.85;;;11.60;99.90;;;;;;6231985;22;20043;-94
2023/03/24 20:54:22;;;;;;;64.25;35.95;;;11.60;99.90;;;;;;6236958;22;20011;-95
2023/03/24 20:57:19;;;;;;;64.45;36.20;;;11.60;99.90;;;;;;6114715;23;20100;-94
2023/03/24 20:59:49;;;;;;;72.20;38.00;;;11.50;99.90;;;;;;6048554;23;20457;-94
2023/03/24 21:02:19;;;;;;;;;;;11.40;99.90;;;;;;6025775;23;20098;-94
2023/03/24 21:04:47;;;;;;;162.82;62.35;;;11.40;99.90;;;;;;6047851;23;19902;-93
2023/03/24 21:07:14;;;;;;;235.55;83.47;;;11.40;99.90;;;;;;6024189;23;20089;-94
2023/03/24 21:09:40;;;;;;;234.88;84.22;;;11.40;99.90;;;;;;6023679;23;20011;-94
2023/03/24 21:12:08;;;;;;;233.57;83.50;;;11.40;99.90;;;;;;6023511;23;20007;-94
2023/03/24 21:14:35;;;;;;;214.30;78.22;;;11.30;99.90;;;;;;6023124;23;20019;-94
2023/03/24 21:17:01;;;;;;;169.60;70.53;;;11.30;99.90;;;;;;6024811;23;20015;-94
2023/03/24 21:19:28;;;;;;;163.45;69.07;;;11.30;99.90;;;;;;6023015;23;20014;-93
2023/03/24 21:21:55;;;;;;;172.50;68.03;;;11.20;99.90;;;;;;6023932;23;20393;-93
2023/03/24 21:24:23;;;;;;;144.60;63.38;;;11.20;99.90;;;;;;6023601;23;20015;-93
2023/03/24 21:26:55;;;;;;;144.93;58.60;;;11.10;99.90;;;;;;6025738;23;19999;-94
2023/03/24 21:29:25;;;;;;;122.93;55.45;;;11.10;99.90;;;;;;6030726;23;20086;-94
2023/03/24 21:31:52;;;;;;;118.22;52.58;;;11.10;99.90;;;;;;6105097;23;20040;-93
2023/03/24 21:34:19;;;;;;;94.55;45.92;;;11.00;99.90;;;;;;6227010;23;20004;-93
2023/03/24 21:36:48;;;;;;;115.60;49.17;;;11.00;99.90;;;;;;6224044;23;20008;-93
2023/03/24 21:39:19;;;;;;;118.65;51.15;;;11.00;99.90;;;;;;6223745;23;20016;-91
2023/03/24 21:41:46;;;;;;;154.25;64.15;;;10.90;99.90;;;;;;6224261;23;20018;-93
2023/03/24 21:44:14;;;;;;;191.77;72.45;;;10.80;99.90;;;;;;6224543;23;20119;-92
2023/03/24 21:46:41;;;;;;;203.98;75.78;;;10.80;99.90;;;;;;6224719;23;20008;-93
2023/03/24 21:49:09;;;;;;;203.23;74.65;;;10.70;99.90;;;;;;6224508;23;20011;-92
2023/03/24 21:51:36;;;;;;;194.15;74.32;;;10.60;99.90;;;;;;6224510;23;20011;-93
2023/03/24 21:54:06;;;;;;;257.58;90.25;;;10.70;99.90;;;;;;6225679;23;19988;-93
2023/03/24 21:56:33;;;;;;;221.02;82.88;;;10.60;99.90;;;;;;6224723;23;20058;-93
2023/03/24 21:59:01;;;;;;;151.00;62.55;;;10.70;99.90;;;;;;6225259;23;20509;-94
2023/03/24 22:01:27;;;;;;;134.60;57.20;;;10.70;99.90;;;;;;6225649;23;20149;-92
2023/03/24 22:03:57;;;;;;;103.18;49.05;;;10.70;99.90;;;;;;6193612;23;20000;-93
2023/03/24 22:06:24;;;;;;;100.15;46.78;;;10.70;99.90;;;;;;6194699;23;20015;-93
2023/03/24 22:09:05;;;;;;;76.45;41.00;;;10.80;99.90;;;;;;6197091;23;20458;-92
2023/03/24 22:11:41;;;;;;;77.78;40.42;;;10.70;99.90;;;;;;6194177;23;20004;-93
2023/03/24 22:14:08;;;;;;;68.38;38.58;;;10.70;99.90;;;;;;6196237;23;20009;-95
2023/03/24 22:16:35;;;;;;;71.30;39.08;;;10.80;99.90;;;;;;6194828;23;20020;-93
2023/03/24 22:19:02;;;;;;;62.13;37.08;;;10.70;99.90;;;;;;6145314;23;20029;-94
2023/03/24 22:21:29;;;;;;;57.55;34.50;;;10.70;99.90;;;;;;6173695;23;20005;-93
2023/03/24 22:29:07;;;;;;;58.28;34.80;;;10.50;99.90;;;;;;6299558;22;20031;-90
2023/03/24 22:31:34;;;;;;;68.68;36.17;;;10.60;99.90;;;;;;6226480;22;20018;-92
2023/03/24 22:34:01;;;;;;;66.57;36.50;;;10.50;99.90;;;;;;6226477;22;20007;-91
2023/03/24 22:36:27;;;;;;;66.28;36.40;;;10.50;99.90;;;;;;6226672;22;20027;-91
2023/03/24 22:38:57;;;;;;;63.67;36.20;;;10.50;99.90;;;;;;6226240;22;20018;-92
2023/03/24 22:41:24;;;;;;;60.05;35.40;;;10.50;99.90;;;;;;6226637;22;20007;-92
2023/03/24 22:43:50;;;;;;;62.03;35.63;;;10.50;99.90;;;;;;6226432;22;20082;-93
2023/03/24 22:46:17;;;;;;;63.70;36.70;;;10.50;99.90;;;;;;6226740;22;20421;-92
2023/03/24 22:48:44;;;;;;;60.28;36.28;;;10.50;99.90;;;;;;6226366;22;20439;-92
2023/03/24 22:51:17;;;;;;;62.67;35.50;;;10.50;99.90;;;;;;6251654;22;20004;-92
2023/03/24 22:53:45;;;;;;;60.63;33.88;;;10.50;99.90;;;;;;6226541;22;20012;-91
2023/03/24 22:56:13;;;;;;;57.17;34.83;;;10.50;99.90;;;;;;6226217;22;20004;-93
2023/03/24 22:58:40;;;;;;;58.75;34.67;;;10.50;99.90;;;;;;6226135;22;20015;-92